sensor_id;sensor_type;location;lat;lon;timestamp;P1;durP1;ratioP1;P2;durP2;ratioP2
33690;SDS011;20026;50.058;18.428;2023-08-31T00:02:21;29.25;;;20.10;;
33690;SDS011;20026;50.058;18.428;2023-08-31T00:04:47;18.65;;;14.90;;
33690;SDS011;20026;50.058;18.428;2023-08-31T00:07:13;15.45;;;11.82;;
33690;SDS011;20026;50.058;18.428;2023-08-31T00:09:39;13.07;;;11.02;;
33690;SDS011;20026;50.058;18.428;2023-08-31T00:12:05;14.30;;;10.80;;
33690;SDS011;20026;50.058;18.428;2023-08-31T00:14:31;12.75;;;11.20;;
33690;SDS011;20026;50.058;18.428;2023-08-31T00:17:01;17.92;;;11.70;;
33690;SDS011;20026;50.058;18.428;2023-08-31T00:19:30;17.35;;;12.23;;
33690;SDS011;20026;50.058;18.428;2023-08-31T00:21:56;17.15;;;12.40;;
33690;SDS011;20026;50.058;18.428;2023-08-31T00:24:22;14.82;;;12.77;;
33690;SDS011;20026;50.058;18.428;2023-08-31T00:26:56;16.88;;;14.80;;
33690;SDS011;20026;50.058;18.428;2023-08-31T00:31:56;15.68;;;12.50;;
33690;SDS011;20026;50.058;18.428;2023-08-31T00:34:22;25.98;;;20.63;;
33690;SDS011;20026;50.058;18.428;2023-08-31T00:36:48;26.92;;;21.70;;
33690;SDS011;20026;50.058;18.428;2023-08-31T00:39:14;23.75;;;19.10;;
33690;SDS011;20026;50.058;18.428;2023-08-31T00:41:42;22.15;;;19.08;;
33690;SDS011;20026;50.058;18.428;2023-08-31T00:44:10;22.98;;;17.30;;
33690;SDS011;20026;50.058;18.428;2023-08-31T00:46:40;18.58;;;15.45;;
33690;SDS011;20026;50.058;18.428;2023-08-31T00:49:07;17.92;;;15.15;;
33690;SDS011;20026;50.058;18.428;2023-08-31T00:51:33;18.52;;;15.48;;
33690;SDS011;20026;50.058;18.428;2023-08-31T00:54:03;16.40;;;13.50;;
33690;SDS011;20026;50.058;18.428;2023-08-31T00:56:30;15.93;;;14.00;;
33690;SDS011;20026;50.058;18.428;2023-08-31T00:58:57;18.25;;;14.20;;
33690;SDS011;20026;50.058;18.428;2023-08-31T01:09:15;17.50;;;13.27;;
33690;SDS011;20026;50.058;18.428;2023-08-31T01:14:15;15.30;;;12.63;;
33690;SDS011;20026;50.058;18.428;2023-08-31T01:16:43;16.77;;;13.18;;
33690;SDS011;20026;50.058;18.428;2023-08-31T01:19:34;16.15;;;11.43;;
33690;SDS011;20026;50.058;18.428;2023-08-31T01:21:57;14.45;;;11.70;;
33690;SDS011;20026;50.058;18.428;2023-08-31T01:24:25;16.83;;;11.82;;
33690;SDS011;20026;50.058;18.428;2023-08-31T01:26:52;16.15;;;12.07;;
33690;SDS011;20026;50.058;18.428;2023-08-31T01:29:18;14.68;;;11.48;;
33690;SDS011;20026;50.058;18.428;2023-08-31T01:31:47;17.45;;;10.70;;
33690;SDS011;20026;50.058;18.428;2023-08-31T01:34:13;16.27;;;11.82;;
33690;SDS011;20026;50.058;18.428;2023-08-31T01:36:42;13.68;;;11.60;;
33690;SDS011;20026;50.058;18.428;2023-08-31T01:41:34;17.08;;;11.65;;
33690;SDS011;20026;50.058;18.428;2023-08-31T01:44:01;12.30;;;10.65;;
33690;SDS011;20026;50.058;18.428;2023-08-31T01:46:27;12.30;;;10.95;;
33690;SDS011;20026;50.058;18.428;2023-08-31T01:48:53;16.42;;;11.75;;
33690;SDS011;20026;50.058;18.428;2023-08-31T01:51:19;14.60;;;12.15;;
33690;SDS011;20026;50.058;18.428;2023-08-31T01:53:45;12.82;;;11.02;;
33690;SDS011;20026;50.058;18.428;2023-08-31T01:56:11;13.15;;;11.77;;
33690;SDS011;20026;50.058;18.428;2023-08-31T01:58:38;14.38;;;12.07;;
33690;SDS011;20026;50.058;18.428;2023-08-31T02:01:04;15.75;;;11.95;;
33690;SDS011;20026;50.058;18.428;2023-08-31T02:03:30;17.15;;;11.57;;
33690;SDS011;20026;50.058;18.428;2023-08-31T02:05:56;17.67;;;12.27;;
33690;SDS011;20026;50.058;18.428;2023-08-31T02:08:22;13.90;;;12.00;;
33690;SDS011;20026;50.058;18.428;2023-08-31T02:10:48;17.42;;;12.90;;
33690;SDS011;20026;50.058;18.428;2023-08-31T02:13:14;13.90;;;12.40;;
33690;SDS011;20026;50.058;18.428;2023-08-31T02:15:41;17.10;;;12.50;;
33690;SDS011;20026;50.058;18.428;2023-08-31T02:18:07;18.67;;;12.07;;
33690;SDS011;20026;50.058;18.428;2023-08-31T02:20:34;15.68;;;11.93;;
33690;SDS011;20026;50.058;18.428;2023-08-31T02:23:04;16.35;;;13.00;;
33690;SDS011;20026;50.058;18.428;2023-08-31T02:25:30;16.65;;;12.90;;
33690;SDS011;20026;50.058;18.428;2023-08-31T02:27:56;15.23;;;12.35;;
33690;SDS011;20026;50.058;18.428;2023-08-31T02:30:22;14.50;;;12.05;;
33690;SDS011;20026;50.058;18.428;2023-08-31T02:32:48;16.17;;;11.45;;
33690;SDS011;20026;50.058;18.428;2023-08-31T02:35:14;11.23;;;10.02;;
33690;SDS011;20026;50.058;18.428;2023-08-31T02:37:40;15.00;;;10.07;;
33690;SDS011;20026;50.058;18.428;2023-08-31T02:40:06;12.63;;;9.15;;
33690;SDS011;20026;50.058;18.428;2023-08-31T02:42:33;13.00;;;9.32;;
33690;SDS011;20026;50.058;18.428;2023-08-31T02:44:59;9.98;;;8.93;;
33690;SDS011;20026;50.058;18.428;2023-08-31T02:47:26;13.35;;;8.75;;
33690;SDS011;20026;50.058;18.428;2023-08-31T02:49:52;14.70;;;9.27;;
33690;SDS011;20026;50.058;18.428;2023-08-31T02:52:18;12.30;;;9.52;;
33690;SDS011;20026;50.058;18.428;2023-08-31T02:54:47;12.77;;;9.20;;
33690;SDS011;20026;50.058;18.428;2023-08-31T02:57:13;10.88;;;9.38;;
33690;SDS011;20026;50.058;18.428;2023-08-31T02:59:44;15.25;;;9.32;;
33690;SDS011;20026;50.058;18.428;2023-08-31T03:02:11;11.77;;;9.77;;
33690;SDS011;20026;50.058;18.428;2023-08-31T03:04:37;11.32;;;9.60;;
33690;SDS011;20026;50.058;18.428;2023-08-31T03:07:04;12.43;;;9.30;;
33690;SDS011;20026;50.058;18.428;2023-08-31T03:09:30;10.52;;;8.82;;
33690;SDS011;20026;50.058;18.428;2023-08-31T03:11:56;11.57;;;8.93;;
33690;SDS011;20026;50.058;18.428;2023-08-31T03:14:22;11.10;;;9.40;;
33690;SDS011;20026;50.058;18.428;2023-08-31T03:16:48;13.00;;;9.68;;
33690;SDS011;20026;50.058;18.428;2023-08-31T03:19:14;11.00;;;8.93;;
33690;SDS011;20026;50.058;18.428;2023-08-31T03:21:40;12.45;;;8.50;;
33690;SDS011;20026;50.058;18.428;2023-08-31T03:24:06;11.05;;;9.35;;
33690;SDS011;20026;50.058;18.428;2023-08-31T03:26:32;9.90;;;8.52;;
33690;SDS011;20026;50.058;18.428;2023-08-31T03:28:59;10.88;;;8.90;;
33690;SDS011;20026;50.058;18.428;2023-08-31T03:31:25;11.73;;;8.63;;
33690;SDS011;20026;50.058;18.428;2023-08-31T03:33:51;9.32;;;8.23;;
33690;SDS011;20026;50.058;18.428;2023-08-31T03:36:17;11.25;;;8.60;;
33690;SDS011;20026;50.058;18.428;2023-08-31T03:38:43;10.68;;;9.20;;
33690;SDS011;20026;50.058;18.428;2023-08-31T03:41:10;12.52;;;9.32;;
33690;SDS011;20026;50.058;18.428;2023-08-31T03:43:36;13.35;;;8.68;;
33690;SDS011;20026;50.058;18.428;2023-08-31T03:46:02;11.88;;;8.55;;
33690;SDS011;20026;50.058;18.428;2023-08-31T03:48:28;10.68;;;8.60;;
33690;SDS011;20026;50.058;18.428;2023-08-31T03:50:55;9.60;;;7.55;;
33690;SDS011;20026;50.058;18.428;2023-08-31T03:53:21;11.98;;;7.80;;
33690;SDS011;20026;50.058;18.428;2023-08-31T03:55:47;9.52;;;8.02;;
33690;SDS011;20026;50.058;18.428;2023-08-31T03:58:13;10.73;;;7.45;;
33690;SDS011;20026;50.058;18.428;2023-08-31T04:00:39;9.05;;;7.65;;
33690;SDS011;20026;50.058;18.428;2023-08-31T04:03:05;11.27;;;7.20;;
33690;SDS011;20026;50.058;18.428;2023-08-31T04:05:32;9.43;;;7.50;;
33690;SDS011;20026;50.058;18.428;2023-08-31T04:07:59;9.25;;;6.55;;
33690;SDS011;20026;50.058;18.428;2023-08-31T04:10:25;7.93;;;7.03;;
33690;SDS011;20026;50.058;18.428;2023-08-31T04:12:51;12.80;;;8.60;;
33690;SDS011;20026;50.058;18.428;2023-08-31T04:15:17;12.45;;;9.85;;
33690;SDS011;20026;50.058;18.428;2023-08-31T04:17:43;12.00;;;10.07;;
33690;SDS011;20026;50.058;18.428;2023-08-31T04:20:10;13.98;;;11.75;;
33690;SDS011;20026;50.058;18.428;2023-08-31T04:22:39;10.38;;;9.27;;
33690;SDS011;20026;50.058;18.428;2023-08-31T04:25:06;12.95;;;10.43;;
33690;SDS011;20026;50.058;18.428;2023-08-31T04:27:35;9.10;;;8.20;;
33690;SDS011;20026;50.058;18.428;2023-08-31T04:30:04;11.32;;;9.60;;
33690;SDS011;20026;50.058;18.428;2023-08-31T04:32:31;13.27;;;10.45;;
33690;SDS011;20026;50.058;18.428;2023-08-31T04:34:58;13.27;;;10.35;;
33690;SDS011;20026;50.058;18.428;2023-08-31T04:37:24;13.18;;;9.80;;
33690;SDS011;20026;50.058;18.428;2023-08-31T04:39:50;12.23;;;9.40;;
33690;SDS011;20026;50.058;18.428;2023-08-31T04:42:16;15.13;;;11.23;;
33690;SDS011;20026;50.058;18.428;2023-08-31T04:44:43;15.32;;;11.98;;
33690;SDS011;20026;50.058;18.428;2023-08-31T04:47:09;16.50;;;13.07;;
33690;SDS011;20026;50.058;18.428;2023-08-31T04:49:35;21.17;;;13.75;;
33690;SDS011;20026;50.058;18.428;2023-08-31T04:52:01;18.35;;;14.13;;
33690;SDS011;20026;50.058;18.428;2023-08-31T04:56:56;28.88;;;20.17;;
33690;SDS011;20026;50.058;18.428;2023-08-31T04:59:24;27.48;;;20.50;;
33690;SDS011;20026;50.058;18.428;2023-08-31T05:01:50;29.98;;;20.40;;
33690;SDS011;20026;50.058;18.428;2023-08-31T05:04:16;22.05;;;17.02;;
33690;SDS011;20026;50.058;18.428;2023-08-31T05:06:42;23.52;;;17.35;;
33690;SDS011;20026;50.058;18.428;2023-08-31T05:09:08;23.00;;;18.65;;
33690;SDS011;20026;50.058;18.428;2023-08-31T05:11:35;20.80;;;15.85;;
33690;SDS011;20026;50.058;18.428;2023-08-31T05:14:01;20.55;;;15.02;;
33690;SDS011;20026;50.058;18.428;2023-08-31T05:16:26;26.05;;;16.67;;
33690;SDS011;20026;50.058;18.428;2023-08-31T05:18:52;21.95;;;17.45;;
33690;SDS011;20026;50.058;18.428;2023-08-31T05:21:18;23.65;;;16.52;;
33690;SDS011;20026;50.058;18.428;2023-08-31T05:23:44;16.73;;;14.27;;
33690;SDS011;20026;50.058;18.428;2023-08-31T05:26:10;20.08;;;15.50;;
33690;SDS011;20026;50.058;18.428;2023-08-31T05:28:40;15.98;;;13.05;;
33690;SDS011;20026;50.058;18.428;2023-08-31T05:31:08;15.27;;;11.07;;
33690;SDS011;20026;50.058;18.428;2023-08-31T05:33:34;12.35;;;10.07;;
33690;SDS011;20026;50.058;18.428;2023-08-31T05:36:01;13.43;;;10.05;;
33690;SDS011;20026;50.058;18.428;2023-08-31T05:38:30;11.90;;;10.00;;
33690;SDS011;20026;50.058;18.428;2023-08-31T05:41:03;11.50;;;8.73;;
33690;SDS011;20026;50.058;18.428;2023-08-31T05:43:29;9.57;;;8.05;;
33690;SDS011;20026;50.058;18.428;2023-08-31T05:45:55;10.35;;;9.25;;
33690;SDS011;20026;50.058;18.428;2023-08-31T05:48:21;12.50;;;10.13;;
33690;SDS011;20026;50.058;18.428;2023-08-31T05:50:47;12.82;;;9.88;;
33690;SDS011;20026;50.058;18.428;2023-08-31T05:53:14;10.13;;;8.60;;
33690;SDS011;20026;50.058;18.428;2023-08-31T05:55:40;12.02;;;9.57;;
33690;SDS011;20026;50.058;18.428;2023-08-31T05:58:06;10.75;;;8.82;;
33690;SDS011;20026;50.058;18.428;2023-08-31T06:00:32;12.95;;;8.90;;
33690;SDS011;20026;50.058;18.428;2023-08-31T06:02:58;12.00;;;8.75;;
33690;SDS011;20026;50.058;18.428;2023-08-31T06:05:24;9.90;;;8.63;;
33690;SDS011;20026;50.058;18.428;2023-08-31T06:07:52;10.77;;;7.82;;
33690;SDS011;20026;50.058;18.428;2023-08-31T06:10:18;8.35;;;7.28;;
33690;SDS011;20026;50.058;18.428;2023-08-31T06:12:44;8.30;;;6.90;;
33690;SDS011;20026;50.058;18.428;2023-08-31T06:15:10;8.18;;;7.05;;
33690;SDS011;20026;50.058;18.428;2023-08-31T06:17:40;7.95;;;6.47;;
33690;SDS011;20026;50.058;18.428;2023-08-31T06:20:06;9.52;;;6.32;;
33690;SDS011;20026;50.058;18.428;2023-08-31T06:22:33;8.00;;;6.00;;
33690;SDS011;20026;50.058;18.428;2023-08-31T06:24:59;8.75;;;6.28;;
33690;SDS011;20026;50.058;18.428;2023-08-31T06:27:25;8.07;;;6.82;;
33690;SDS011;20026;50.058;18.428;2023-08-31T06:29:51;7.30;;;5.88;;
33690;SDS011;20026;50.058;18.428;2023-08-31T06:32:17;8.13;;;6.28;;
33690;SDS011;20026;50.058;18.428;2023-08-31T06:34:44;8.05;;;5.13;;
33690;SDS011;20026;50.058;18.428;2023-08-31T06:37:10;6.30;;;5.65;;
33690;SDS011;20026;50.058;18.428;2023-08-31T06:39:36;6.78;;;5.30;;
33690;SDS011;20026;50.058;18.428;2023-08-31T06:42:02;7.18;;;5.25;;
33690;SDS011;20026;50.058;18.428;2023-08-31T06:44:28;6.13;;;5.35;;
33690;SDS011;20026;50.058;18.428;2023-08-31T06:46:54;5.78;;;5.10;;
33690;SDS011;20026;50.058;18.428;2023-08-31T06:49:21;8.02;;;5.90;;
33690;SDS011;20026;50.058;18.428;2023-08-31T06:51:48;8.02;;;7.10;;
33690;SDS011;20026;50.058;18.428;2023-08-31T06:54:14;12.20;;;7.82;;
33690;SDS011;20026;50.058;18.428;2023-08-31T06:56:40;17.05;;;8.23;;
33690;SDS011;20026;50.058;18.428;2023-08-31T06:59:07;9.10;;;8.18;;
33690;SDS011;20026;50.058;18.428;2023-08-31T07:01:33;11.10;;;9.05;;
33690;SDS011;20026;50.058;18.428;2023-08-31T07:03:59;9.23;;;8.10;;
33690;SDS011;20026;50.058;18.428;2023-08-31T07:06:25;11.70;;;8.80;;
33690;SDS011;20026;50.058;18.428;2023-08-31T07:08:51;10.93;;;9.07;;
33690;SDS011;20026;50.058;18.428;2023-08-31T07:11:17;12.43;;;8.02;;
33690;SDS011;20026;50.058;18.428;2023-08-31T07:13:43;12.88;;;8.88;;
33690;SDS011;20026;50.058;18.428;2023-08-31T07:16:09;7.07;;;5.70;;
33690;SDS011;20026;50.058;18.428;2023-08-31T07:18:35;13.52;;;6.70;;
33690;SDS011;20026;50.058;18.428;2023-08-31T07:21:02;6.10;;;5.30;;
33690;SDS011;20026;50.058;18.428;2023-08-31T07:23:31;9.35;;;4.95;;
33690;SDS011;20026;50.058;18.428;2023-08-31T07:25:57;6.40;;;5.20;;
33690;SDS011;20026;50.058;18.428;2023-08-31T07:28:26;6.07;;;5.13;;
33690;SDS011;20026;50.058;18.428;2023-08-31T07:31:02;6.75;;;5.68;;
33690;SDS011;20026;50.058;18.428;2023-08-31T07:33:28;7.32;;;6.25;;
33690;SDS011;20026;50.058;18.428;2023-08-31T07:35:56;9.60;;;6.32;;
33690;SDS011;20026;50.058;18.428;2023-08-31T07:38:22;9.05;;;6.75;;
33690;SDS011;20026;50.058;18.428;2023-08-31T07:40:48;7.15;;;6.20;;
33690;SDS011;20026;50.058;18.428;2023-08-31T07:43:14;7.20;;;5.35;;
33690;SDS011;20026;50.058;18.428;2023-08-31T07:45:40;8.80;;;5.22;;
33690;SDS011;20026;50.058;18.428;2023-08-31T07:48:06;8.10;;;5.75;;
33690;SDS011;20026;50.058;18.428;2023-08-31T07:50:33;6.00;;;5.40;;
33690;SDS011;20026;50.058;18.428;2023-08-31T07:53:02;8.07;;;5.40;;
33690;SDS011;20026;50.058;18.428;2023-08-31T07:55:28;10.38;;;5.03;;
33690;SDS011;20026;50.058;18.428;2023-08-31T07:57:54;21.48;;;6.45;;
33690;SDS011;20026;50.058;18.428;2023-08-31T08:00:20;7.15;;;4.65;;
33690;SDS011;20026;50.058;18.428;2023-08-31T08:02:47;8.32;;;4.72;;
33690;SDS011;20026;50.058;18.428;2023-08-31T08:05:13;8.68;;;5.50;;
33690;SDS011;20026;50.058;18.428;2023-08-31T08:07:39;7.22;;;5.80;;
33690;SDS011;20026;50.058;18.428;2023-08-31T08:10:07;8.30;;;6.53;;
33690;SDS011;20026;50.058;18.428;2023-08-31T08:12:37;7.43;;;6.55;;
33690;SDS011;20026;50.058;18.428;2023-08-31T08:15:08;10.13;;;6.18;;
33690;SDS011;20026;50.058;18.428;2023-08-31T08:17:34;10.18;;;6.50;;
33690;SDS011;20026;50.058;18.428;2023-08-31T08:20:00;10.60;;;5.97;;
33690;SDS011;20026;50.058;18.428;2023-08-31T08:22:26;8.90;;;7.05;;
33690;SDS011;20026;50.058;18.428;2023-08-31T08:24:52;9.85;;;6.88;;
33690;SDS011;20026;50.058;18.428;2023-08-31T08:27:18;8.13;;;7.32;;
33690;SDS011;20026;50.058;18.428;2023-08-31T08:29:45;17.67;;;10.95;;
33690;SDS011;20026;50.058;18.428;2023-08-31T08:32:11;10.52;;;8.60;;
33690;SDS011;20026;50.058;18.428;2023-08-31T08:34:38;9.25;;;8.35;;
33690;SDS011;20026;50.058;18.428;2023-08-31T08:37:04;9.57;;;7.38;;
33690;SDS011;20026;50.058;18.428;2023-08-31T08:39:30;9.27;;;6.68;;
33690;SDS011;20026;50.058;18.428;2023-08-31T08:41:57;9.40;;;7.30;;
33690;SDS011;20026;50.058;18.428;2023-08-31T08:44:24;8.23;;;6.90;;
33690;SDS011;20026;50.058;18.428;2023-08-31T08:46:51;7.47;;;5.88;;
33690;SDS011;20026;50.058;18.428;2023-08-31T08:49:21;7.32;;;5.95;;
33690;SDS011;20026;50.058;18.428;2023-08-31T08:51:49;8.68;;;7.00;;
33690;SDS011;20026;50.058;18.428;2023-08-31T08:54:17;7.13;;;6.40;;
33690;SDS011;20026;50.058;18.428;2023-08-31T08:56:43;11.07;;;6.30;;
33690;SDS011;20026;50.058;18.428;2023-08-31T08:59:10;17.10;;;6.72;;
33690;SDS011;20026;50.058;18.428;2023-08-31T09:01:38;6.95;;;6.22;;
33690;SDS011;20026;50.058;18.428;2023-08-31T09:04:04;9.40;;;6.15;;
33690;SDS011;20026;50.058;18.428;2023-08-31T09:06:31;7.60;;;5.43;;
33690;SDS011;20026;50.058;18.428;2023-08-31T09:08:57;10.10;;;5.95;;
33690;SDS011;20026;50.058;18.428;2023-08-31T09:11:23;5.45;;;4.93;;
33690;SDS011;20026;50.058;18.428;2023-08-31T09:13:50;6.35;;;5.70;;
33690;SDS011;20026;50.058;18.428;2023-08-31T09:19:17;7.40;;;6.28;;
33690;SDS011;20026;50.058;18.428;2023-08-31T09:21:44;8.50;;;5.18;;
33690;SDS011;20026;50.058;18.428;2023-08-31T09:24:11;5.22;;;4.50;;
33690;SDS011;20026;50.058;18.428;2023-08-31T09:26:38;5.85;;;4.63;;
33690;SDS011;20026;50.058;18.428;2023-08-31T09:29:08;8.57;;;5.28;;
33690;SDS011;20026;50.058;18.428;2023-08-31T09:31:34;8.10;;;7.00;;
33690;SDS011;20026;50.058;18.428;2023-08-31T09:34:00;5.07;;;4.65;;
33690;SDS011;20026;50.058;18.428;2023-08-31T09:36:28;5.50;;;4.95;;
33690;SDS011;20026;50.058;18.428;2023-08-31T09:38:56;6.82;;;4.75;;
33690;SDS011;20026;50.058;18.428;2023-08-31T09:41:23;6.18;;;4.82;;
33690;SDS011;20026;50.058;18.428;2023-08-31T09:43:49;5.70;;;4.55;;
33690;SDS011;20026;50.058;18.428;2023-08-31T09:46:15;9.65;;;8.52;;
33690;SDS011;20026;50.058;18.428;2023-08-31T09:48:42;4.45;;;4.15;;
33690;SDS011;20026;50.058;18.428;2023-08-31T09:51:11;6.63;;;4.13;;
33690;SDS011;20026;50.058;18.428;2023-08-31T09:53:37;12.48;;;5.70;;
33690;SDS011;20026;50.058;18.428;2023-08-31T09:56:04;6.82;;;4.35;;
33690;SDS011;20026;50.058;18.428;2023-08-31T09:58:31;7.10;;;4.72;;
33690;SDS011;20026;50.058;18.428;2023-08-31T10:00:58;8.75;;;6.28;;
33690;SDS011;20026;50.058;18.428;2023-08-31T10:03:25;12.35;;;8.70;;
33690;SDS011;20026;50.058;18.428;2023-08-31T10:05:52;8.35;;;4.15;;
33690;SDS011;20026;50.058;18.428;2023-08-31T10:08:19;13.65;;;3.17;;
33690;SDS011;20026;50.058;18.428;2023-08-31T10:13:15;4.20;;;3.13;;
33690;SDS011;20026;50.058;18.428;2023-08-31T10:15:41;5.07;;;2.50;;
33690;SDS011;20026;50.058;18.428;2023-08-31T10:18:08;5.93;;;3.30;;
33690;SDS011;20026;50.058;18.428;2023-08-31T10:20:34;2.50;;;2.30;;
33690;SDS011;20026;50.058;18.428;2023-08-31T10:23:05;5.10;;;4.30;;
33690;SDS011;20026;50.058;18.428;2023-08-31T10:28:22;3.20;;;2.60;;
33690;SDS011;20026;50.058;18.428;2023-08-31T10:31:07;2.78;;;2.50;;
33690;SDS011;20026;50.058;18.428;2023-08-31T10:36:20;59.35;;;6.15;;
33690;SDS011;20026;50.058;18.428;2023-08-31T10:38:47;86.70;;;8.23;;
33690;SDS011;20026;50.058;18.428;2023-08-31T10:43:50;36.15;;;4.13;;
33690;SDS011;20026;50.058;18.428;2023-08-31T10:51:28;35.47;;;6.78;;
33690;SDS011;20026;50.058;18.428;2023-08-31T10:54:07;10.88;;;3.35;;
33690;SDS011;20026;50.058;18.428;2023-08-31T11:02:33;7.47;;;1.80;;
33690;SDS011;20026;50.058;18.428;2023-08-31T11:07:29;4.97;;;2.25;;
33690;SDS011;20026;50.058;18.428;2023-08-31T11:12:40;5.95;;;2.00;;
33690;SDS011;20026;50.058;18.428;2023-08-31T11:15:06;4.85;;;1.95;;
33690;SDS011;20026;50.058;18.428;2023-08-31T11:17:32;113.70;;;7.43;;
33690;SDS011;20026;50.058;18.428;2023-08-31T11:20:05;118.70;;;7.93;;
33690;SDS011;20026;50.058;18.428;2023-08-31T11:22:34;200.52;;;12.55;;
33690;SDS011;20026;50.058;18.428;2023-08-31T11:25:00;232.32;;;13.32;;
33690;SDS011;20026;50.058;18.428;2023-08-31T11:27:26;39.20;;;3.38;;
33690;SDS011;20026;50.058;18.428;2023-08-31T11:29:52;52.95;;;6.20;;
33690;SDS011;20026;50.058;18.428;2023-08-31T11:32:18;12.02;;;2.42;;
33690;SDS011;20026;50.058;18.428;2023-08-31T11:34:44;13.52;;;3.58;;
33690;SDS011;20026;50.058;18.428;2023-08-31T11:37:12;27.15;;;2.47;;
33690;SDS011;20026;50.058;18.428;2023-08-31T11:39:41;18.15;;;2.47;;
33690;SDS011;20026;50.058;18.428;2023-08-31T11:42:07;22.73;;;3.75;;
33690;SDS011;20026;50.058;18.428;2023-08-31T11:44:40;239.88;;;16.45;;
33690;SDS011;20026;50.058;18.428;2023-08-31T11:47:06;7.50;;;3.05;;
33690;SDS011;20026;50.058;18.428;2023-08-31T11:49:32;59.47;;;6.10;;
33690;SDS011;20026;50.058;18.428;2023-08-31T11:52:02;24.30;;;2.88;;
33690;SDS011;20026;50.058;18.428;2023-08-31T11:54:28;31.30;;;4.40;;
33690;SDS011;20026;50.058;18.428;2023-08-31T11:56:54;4.75;;;2.00;;
33690;SDS011;20026;50.058;18.428;2023-08-31T11:59:21;4.10;;;2.28;;
33690;SDS011;20026;50.058;18.428;2023-08-31T12:01:48;3.35;;;2.10;;
33690;SDS011;20026;50.058;18.428;2023-08-31T12:04:21;7.20;;;2.47;;
33690;SDS011;20026;50.058;18.428;2023-08-31T12:06:53;2.75;;;2.42;;
33690;SDS011;20026;50.058;18.428;2023-08-31T12:09:27;2.95;;;2.50;;
33690;SDS011;20026;50.058;18.428;2023-08-31T12:11:56;2.75;;;2.17;;
33690;SDS011;20026;50.058;18.428;2023-08-31T12:14:23;5.47;;;2.33;;
33690;SDS011;20026;50.058;18.428;2023-08-31T12:17:00;4.45;;;2.30;;
33690;SDS011;20026;50.058;18.428;2023-08-31T12:19:31;5.60;;;2.15;;
33690;SDS011;20026;50.058;18.428;2023-08-31T12:21:57;2.75;;;1.70;;
33690;SDS011;20026;50.058;18.428;2023-08-31T12:24:23;23.88;;;4.00;;
33690;SDS011;20026;50.058;18.428;2023-08-31T12:29:19;453.33;;;23.90;;
33690;SDS011;20026;50.058;18.428;2023-08-31T12:31:45;42.78;;;5.45;;
33690;SDS011;20026;50.058;18.428;2023-08-31T12:34:11;9.35;;;3.53;;
33690;SDS011;20026;50.058;18.428;2023-08-31T12:36:37;7.75;;;1.73;;
33690;SDS011;20026;50.058;18.428;2023-08-31T12:39:05;3.03;;;1.85;;
33690;SDS011;20026;50.058;18.428;2023-08-31T12:41:34;4.13;;;1.50;;
33690;SDS011;20026;50.058;18.428;2023-08-31T12:44:01;1.90;;;1.80;;
33690;SDS011;20026;50.058;18.428;2023-08-31T12:46:28;9.48;;;2.10;;
33690;SDS011;20026;50.058;18.428;2023-08-31T12:48:54;5.93;;;2.05;;
33690;SDS011;20026;50.058;18.428;2023-08-31T12:51:20;3.72;;;2.00;;
33690;SDS011;20026;50.058;18.428;2023-08-31T12:53:46;5.28;;;2.58;;
33690;SDS011;20026;50.058;18.428;2023-08-31T12:56:13;21.90;;;11.65;;
33690;SDS011;20026;50.058;18.428;2023-08-31T12:58:46;2.58;;;1.92;;
33690;SDS011;20026;50.058;18.428;2023-08-31T13:01:12;4.15;;;1.90;;
33690;SDS011;20026;50.058;18.428;2023-08-31T13:03:38;2.67;;;2.17;;
33690;SDS011;20026;50.058;18.428;2023-08-31T13:06:04;3.67;;;1.52;;
33690;SDS011;20026;50.058;18.428;2023-08-31T13:08:30;4.50;;;2.22;;
33690;SDS011;20026;50.058;18.428;2023-08-31T13:10:56;2.10;;;1.60;;
33690;SDS011;20026;50.058;18.428;2023-08-31T13:13:22;14.20;;;7.07;;
33690;SDS011;20026;50.058;18.428;2023-08-31T13:15:48;21.83;;;15.65;;
33690;SDS011;20026;50.058;18.428;2023-08-31T13:18:14;20.20;;;11.77;;
33690;SDS011;20026;50.058;18.428;2023-08-31T13:20:48;3.67;;;2.78;;
33690;SDS011;20026;50.058;18.428;2023-08-31T13:23:14;2.88;;;1.52;;
33690;SDS011;20026;50.058;18.428;2023-08-31T13:25:43;8.63;;;2.97;;
33690;SDS011;20026;50.058;18.428;2023-08-31T13:28:09;2.42;;;1.30;;
33690;SDS011;20026;50.058;18.428;2023-08-31T13:30:35;3.63;;;2.13;;
33690;SDS011;20026;50.058;18.428;2023-08-31T13:33:01;3.53;;;2.00;;
33690;SDS011;20026;50.058;18.428;2023-08-31T13:35:30;2.90;;;1.50;;
33690;SDS011;20026;50.058;18.428;2023-08-31T13:37:56;2.85;;;2.28;;
33690;SDS011;20026;50.058;18.428;2023-08-31T13:40:22;7.15;;;5.22;;
33690;SDS011;20026;50.058;18.428;2023-08-31T13:42:58;9.25;;;7.60;;
33690;SDS011;20026;50.058;18.428;2023-08-31T13:45:30;75.57;;;9.38;;
33690;SDS011;20026;50.058;18.428;2023-08-31T13:47:57;123.35;;;8.65;;
33690;SDS011;20026;50.058;18.428;2023-08-31T13:50:24;59.53;;;5.30;;
33690;SDS011;20026;50.058;18.428;2023-08-31T13:52:51;118.88;;;7.32;;
33690;SDS011;20026;50.058;18.428;2023-08-31T13:55:17;8.85;;;1.90;;
33690;SDS011;20026;50.058;18.428;2023-08-31T13:57:43;18.30;;;2.53;;
33690;SDS011;20026;50.058;18.428;2023-08-31T14:00:09;472.15;;;23.20;;
33690;SDS011;20026;50.058;18.428;2023-08-31T14:02:36;13.02;;;1.92;;
33690;SDS011;20026;50.058;18.428;2023-08-31T14:05:02;12.45;;;2.50;;
33690;SDS011;20026;50.058;18.428;2023-08-31T14:07:28;5.78;;;1.30;;
33690;SDS011;20026;50.058;18.428;2023-08-31T14:09:54;5.47;;;1.58;;
33690;SDS011;20026;50.058;18.428;2023-08-31T14:12:20;2.55;;;1.30;;
33690;SDS011;20026;50.058;18.428;2023-08-31T14:14:46;3.30;;;1.50;;
33690;SDS011;20026;50.058;18.428;2023-08-31T14:17:12;2.55;;;1.30;;
33690;SDS011;20026;50.058;18.428;2023-08-31T14:19:38;12.00;;;2.20;;
33690;SDS011;20026;50.058;18.428;2023-08-31T14:22:05;1.23;;;1.13;;
33690;SDS011;20026;50.058;18.428;2023-08-31T14:24:32;5.97;;;1.33;;
33690;SDS011;20026;50.058;18.428;2023-08-31T14:26:58;3.33;;;1.20;;
33690;SDS011;20026;50.058;18.428;2023-08-31T14:29:24;7.88;;;1.60;;
33690;SDS011;20026;50.058;18.428;2023-08-31T14:31:50;2.45;;;1.35;;
33690;SDS011;20026;50.058;18.428;2023-08-31T14:34:19;2.60;;;1.30;;
33690;SDS011;20026;50.058;18.428;2023-08-31T14:36:45;3.22;;;1.67;;
33690;SDS011;20026;50.058;18.428;2023-08-31T14:39:11;4.88;;;1.70;;
33690;SDS011;20026;50.058;18.428;2023-08-31T14:41:37;2.92;;;1.33;;
33690;SDS011;20026;50.058;18.428;2023-08-31T14:44:03;4.57;;;1.98;;
33690;SDS011;20026;50.058;18.428;2023-08-31T14:46:29;1.60;;;1.40;;
33690;SDS011;20026;50.058;18.428;2023-08-31T14:48:55;28.65;;;2.70;;
33690;SDS011;20026;50.058;18.428;2023-08-31T14:51:21;14.18;;;1.90;;
33690;SDS011;20026;50.058;18.428;2023-08-31T14:53:47;6.72;;;1.48;;
33690;SDS011;20026;50.058;18.428;2023-08-31T14:56:13;3.95;;;1.55;;
33690;SDS011;20026;50.058;18.428;2023-08-31T14:58:39;4.20;;;1.67;;
33690;SDS011;20026;50.058;18.428;2023-08-31T15:01:05;5.68;;;1.83;;
33690;SDS011;20026;50.058;18.428;2023-08-31T15:03:31;5.80;;;1.50;;
33690;SDS011;20026;50.058;18.428;2023-08-31T15:05:57;15.65;;;2.17;;
33690;SDS011;20026;50.058;18.428;2023-08-31T15:08:34;75.28;;;5.57;;
33690;SDS011;20026;50.058;18.428;2023-08-31T15:11:01;2.88;;;1.25;;
33690;SDS011;20026;50.058;18.428;2023-08-31T15:13:27;15.13;;;7.38;;